Time;durP1;ratioP1;P1;durP2;ratioP2;P2;SDS_P1;SDS_P2;PMS_P1;PMS_P2;Temp;Humidity;BMP_temperature;BMP_pressure;BME280_temperature;BME280_humidity;BME280_pressure;Samples;Min_cycle;Max_cycle;Signal;HPM_P1;HPM_P2
2022/05/21 00:01:56;;;;;;;0.60;0.10;;;17.60;99.90;;;;;;5035893;28;20554;-78
2022/05/21 00:04:24;;;;;;;0.60;0.10;;;17.00;99.90;;;;;;5023636;28;20545;-76
2022/05/21 00:06:56;;;;;;;0.60;0.20;;;17.30;99.90;;;;;;5015715;28;20464;-78
2022/05/21 00:09:25;;;;;;;0.60;0.10;;;17.30;99.90;;;;;;5015473;28;20445;-78
2022/05/21 00:11:55;;;;;;;0.60;0.20;;;17.20;99.90;;;;;;5015226;28;20979;-78
2022/05/21 00:14:24;;;;;;;0.60;0.10;;;17.20;99.90;;;;;;5016794;28;20506;-77
2022/05/21 00:16:52;;;;;;;1.10;0.50;;;17.20;99.90;;;;;;5016833;28;20853;-77
2022/05/21 00:19:20;;;;;;;0.60;0.13;;;17.10;99.90;;;;;;5010933;28;20823;-78
2022/05/21 00:21:48;;;;;;;1.17;0.50;;;17.00;99.90;;;;;;5010737;28;20571;-77
2022/05/21 00:24:18;;;;;;;0.60;0.10;;;16.90;99.90;;;;;;5019139;28;20448;-77
2022/05/21 00:26:47;;;;;;;0.60;0.10;;;17.00;99.90;;;;;;5037632;28;20472;-77
2022/05/21 00:29:15;;;;;;;0.60;0.20;;;17.00;99.90;;;;;;5028780;28;20451;-77
2022/05/21 00:31:43;;;;;;;0.60;0.10;;;16.90;99.90;;;;;;5030001;28;20467;-77
2022/05/21 00:34:10;;;;;;;0.60;0.20;;;16.90;99.90;;;;;;5025958;28;20440;-77
2022/05/21 00:36:38;;;;;;;0.80;0.40;;;16.80;99.90;;;;;;5010271;28;20548;-76
2022/05/21 00:39:07;;;;;;;0.60;0.10;;;16.80;99.90;;;;;;5015791;28;20542;-77
2022/05/21 00:41:36;;;;;;;0.60;0.30;;;16.70;99.90;;;;;;5028845;28;21135;-77
2022/05/21 00:44:05;;;;;;;0.60;0.10;;;16.70;99.90;;;;;;5029218;28;20442;-77
2022/05/21 00:46:35;;;;;;;0.60;0.10;;;16.70;99.90;;;;;;5028943;28;20440;-77
2022/05/21 00:49:07;;;;;;;0.60;0.10;;;16.70;99.90;;;;;;5030360;28;20464;-78
2022/05/21 00:51:38;;;;;;;0.60;0.10;;;16.60;99.90;;;;;;5034689;28;20969;-77
2022/05/21 00:54:08;;;;;;;0.60;0.10;;;16.60;99.90;;;;;;5034808;28;20448;-78
2022/05/21 00:56:46;;;;;;;0.60;0.10;;;16.70;99.90;;;;;;5033489;28;20458;-77
2022/05/21 01:02:04;;;;;;;0.60;0.13;;;16.60;99.90;;;;;;5032703;28;20477;-77
2022/05/21 01:04:34;;;;;;;0.60;0.10;;;16.70;99.90;;;;;;5034814;28;20458;-77
2022/05/21 01:07:03;;;;;;;0.60;0.10;;;16.70;99.90;;;;;;5035506;28;20458;-77
2022/05/21 01:09:33;;;;;;;0.60;0.10;;;16.70;99.90;;;;;;5033710;28;20454;-77
2022/05/21 01:12:04;;;;;;;0.60;0.10;;;16.60;99.90;;;;;;5033890;28;20952;-77
2022/05/21 01:14:32;;;;;;;0.60;0.13;;;16.60;99.90;;;;;;5034479;28;20209;-76
2022/05/21 01:17:01;;;;;;;0.60;0.20;;;16.60;99.90;;;;;;5037295;28;20534;-77
2022/05/21 01:19:29;;;;;;;0.60;0.10;;;16.50;99.90;;;;;;5035038;28;20535;-77
2022/05/21 01:21:58;;;;;;;0.60;0.10;;;16.50;99.90;;;;;;5036077;28;20328;-77
2022/05/21 01:24:28;;;;;;;0.60;0.20;;;16.50;99.90;;;;;;5030441;28;20863;-77
2022/05/21 01:26:56;;;;;;;0.60;0.10;;;16.50;99.90;;;;;;5025271;28;20563;-77
2022/05/21 01:29:29;;;;;;;0.60;0.10;;;16.60;99.90;;;;;;5014523;28;20471;-78
2022/05/21 01:31:57;;;;;;;0.60;0.10;;;16.60;99.90;;;;;;5029331;28;20506;-72
2022/05/21 01:34:26;;;;;;;0.60;0.10;;;16.60;1.00;;;;;;5013599;28;20941;-75
2022/05/21 01:36:54;;;;;;;0.60;0.30;;;16.60;1.00;;;;;;5027702;28;20458;-75
2022/05/21 01:39:22;;;;;;;0.60;0.10;;;16.60;1.00;;;;;;5013718;28;20964;-75
2022/05/21 01:41:51;;;;;;;0.60;0.10;;;16.60;1.00;;;;;;5011179;28;20483;-76
2022/05/21 01:47:06;;;;;;;0.60;0.10;;;16.60;1.00;;;;;;5012871;28;20446;-76
2022/05/21 01:49:34;;;;;;;0.60;0.10;;;16.50;1.00;;;;;;5012858;28;20436;-76
2022/05/21 01:52:04;;;;;;;0.60;0.10;;;16.40;1.00;;;;;;5012442;28;20958;-76
2022/05/21 01:54:33;;;;;;;0.60;0.10;;;16.30;1.00;;;;;;5012217;28;20452;-77
2022/05/21 01:57:04;;;;;;;0.60;0.10;;;16.00;1.00;;;;;;5010410;28;20885;-76
2022/05/21 01:59:32;;;;;;;0.60;0.10;;;15.70;1.00;;;;;;5012813;28;20448;-75
2022/05/21 02:02:01;;;;;;;0.60;0.20;;;15.70;1.00;;;;;;5011522;28;21064;-76
2022/05/21 02:04:30;;;;;;;0.60;0.20;;;15.60;1.00;;;;;;5011410;28;20908;-77
2022/05/21 02:06:58;;;;;;;0.60;0.30;;;15.60;1.00;;;;;;5010566;28;20456;-77
2022/05/21 02:09:27;;;;;;;0.60;0.10;;;15.60;1.00;;;;;;5010738;28;20805;-77
2022/05/21 02:11:55;;;;;;;0.60;0.10;;;15.50;1.00;;;;;;5011213;28;20473;-77
2022/05/21 02:14:24;;;;;;;1.93;0.50;;;15.40;1.00;;;;;;5012111;28;20205;-77
2022/05/21 02:16:53;;;;;;;0.80;0.37;;;15.20;1.00;;;;;;5013356;28;20602;-76
2022/05/21 02:19:21;;;;;;;0.60;0.10;;;15.20;1.00;;;;;;5012399;28;20444;-76
2022/05/21 02:21:49;;;;;;;0.60;0.10;;;15.20;1.00;;;;;;5051430;23;20510;-77
2022/05/21 02:24:17;;;;;;;0.60;0.10;;;15.10;1.00;;;;;;5043594;28;20444;-76
2022/05/21 02:26:44;;;;;;;0.83;0.50;;;15.00;1.00;;;;;;5026697;27;20446;-76
2022/05/21 02:29:12;;;;;;;0.60;0.20;;;15.00;1.00;;;;;;5031355;28;20451;-76
2022/05/21 02:31:41;;;;;;;0.60;0.10;;;15.00;1.00;;;;;;5059870;28;20465;-77
2022/05/21 02:34:09;;;;;;;0.60;0.20;;;15.00;1.00;;;;;;5061394;28;20456;-76
2022/05/21 02:39:29;;;;;;;0.60;0.13;;;15.00;1.00;;;;;;5051279;28;20448;-76
2022/05/21 02:41:58;;;;;;;0.70;0.40;;;14.90;1.00;;;;;;5050406;28;20532;-75
2022/05/21 02:44:26;;;;;;;0.60;0.20;;;14.90;1.00;;;;;;5050368;28;20476;-78
2022/05/21 02:46:56;;;;;;;0.60;0.10;;;14.90;1.00;;;;;;5050301;28;20445;-77
2022/05/21 02:49:25;;;;;;;0.60;0.10;;;14.90;1.00;;;;;;5050795;28;20453;-77
2022/05/21 02:51:53;;;;;;;0.60;0.10;;;15.00;1.00;;;;;;5054344;28;20882;-76
2022/05/21 02:54:21;;;;;;;0.60;0.10;;;15.00;1.00;;;;;;5061365;27;20896;-76
2022/05/21 02:56:51;;;;;;;0.60;0.20;;;15.00;1.00;;;;;;5060210;27;20951;-75
2022/05/21 02:59:19;;;;;;;0.60;0.10;;;15.10;1.00;;;;;;5047946;28;20797;-75
2022/05/21 03:01:47;;;;;;;0.60;0.10;;;15.10;1.00;;;;;;5047536;28;20486;-76
2022/05/21 03:04:16;;;;;;;0.60;0.13;;;15.10;1.00;;;;;;5048105;28;20451;-75
2022/05/21 03:06:44;;;;;;;0.60;0.10;;;15.10;1.00;;;;;;5047583;28;20445;-76
2022/05/21 03:11:57;;;;;;;0.60;0.10;;;14.90;1.00;;;;;;5048371;28;20497;-76
2022/05/21 03:14:25;;;;;;;0.60;0.10;;;14.90;1.00;;;;;;5050320;28;20449;-76
2022/05/21 03:16:59;;;;;;;0.60;0.10;;;14.90;1.00;;;;;;5050663;28;20553;-76
2022/05/21 03:19:29;;;;;;;0.70;0.30;;;15.00;1.00;;;;;;5050734;28;20448;-76
2022/05/21 03:21:57;;;;;;;0.60;0.30;;;15.10;1.00;;;;;;5053678;28;20491;-76
2022/05/21 03:24:25;;;;;;;0.60;0.10;;;15.10;1.00;;;;;;5054580;28;20446;-75
2022/05/21 03:26:53;;;;;;;0.60;0.10;;;15.10;1.00;;;;;;5061103;28;20440;-75
2022/05/21 03:29:21;;;;;;;1.67;0.93;;;15.10;1.00;;;;;;5070437;28;20457;-76
2022/05/21 03:31:49;;;;;;;1.20;0.50;;;15.00;1.00;;;;;;5095007;27;20465;-75
2022/05/21 03:34:17;;;;;;;0.60;0.10;;;14.90;1.00;;;;;;5058163;28;20478;-75
2022/05/21 03:36:46;;;;;;;0.60;0.20;;;14.90;1.00;;;;;;5032100;28;20435;-77
2022/05/21 03:39:19;;;;;;;0.60;0.20;;;14.80;1.00;;;;;;5031850;28;20780;-77
2022/05/21 03:41:47;;;;;;;0.60;0.10;;;14.80;1.00;;;;;;5029930;28;20569;-77
2022/05/21 03:44:15;;;;;;;0.70;0.23;;;14.80;1.00;;;;;;5029301;28;20979;-77
2022/05/21 03:46:43;;;;;;;0.60;0.20;;;14.80;1.00;;;;;;5028637;28;20443;-77
2022/05/21 03:49:11;;;;;;;0.60;0.20;;;14.80;1.00;;;;;;5034643;28;20439;-76
2022/05/21 03:51:38;;;;;;;0.70;0.27;;;14.70;1.00;;;;;;5043407;28;20461;-77
2022/05/21 03:54:08;;;;;;;0.60;0.10;;;;;;;;;;5061932;28;20798;-76
2022/05/21 03:56:36;;;;;;;0.60;0.10;;;14.60;1.00;;;;;;5056904;28;20441;-76
2022/05/21 03:59:04;;;;;;;0.60;0.10;;;14.50;1.00;;;;;;5049167;28;20459;-76
2022/05/21 04:01:32;;;;;;;0.70;0.20;;;14.50;1.00;;;;;;5050141;28;20479;-76
2022/05/21 04:03:59;;;;;;;0.60;0.10;;;14.50;1.00;;;;;;5048509;28;20911;-76
2022/05/21 04:06:27;;;;;;;0.60;0.10;;;14.60;1.00;;;;;;5058625;28;20456;-76
2022/05/21 04:08:55;;;;;;;0.60;0.10;;;14.60;1.00;;;;;;5068769;28;20470;-74
2022/05/21 04:11:24;;;;;;;0.60;0.10;;;14.70;1.00;;;;;;5068331;28;20468;-75
2022/05/21 04:13:52;;;;;;;0.60;0.10;;;14.70;1.00;;;;;;5068190;28;20447;-75
2022/05/21 04:16:21;;;;;;;0.60;0.10;;;14.70;1.00;;;;;;5068007;27;20446;-75
2022/05/21 04:18:48;;;;;;;0.60;0.10;;;14.70;1.00;;;;;;5070531;27;20233;-76
2022/05/21 04:21:17;;;;;;;0.60;0.10;;;14.90;1.00;;;;;;5068197;28;20491;-76
2022/05/21 04:23:45;;;;;;;0.60;0.10;;;14.90;1.00;;;;;;5068871;28;20442;-76
2022/05/21 04:26:12;;;;;;;1.10;0.93;;;14.90;1.00;;;;;;5062933;28;20451;-75
2022/05/21 04:28:42;;;;;;;0.60;0.13;;;14.90;1.00;;;;;;5059445;28;20437;-75
2022/05/21 04:31:10;;;;;;;0.70;0.30;;;14.80;1.00;;;;;;5069935;28;20922;-76
2022/05/21 04:33:38;;;;;;;1.23;1.13;;;14.70;1.00;;;;;;5070193;28;20555;-77
2022/05/21 04:36:21;;;;;;;0.80;0.37;;;14.70;1.00;;;;;;5069357;28;20433;-77
2022/05/21 04:38:51;;;;;;;0.60;0.10;;;14.70;1.00;;;;;;5070408;27;20515;-76
2022/05/21 04:41:20;;;;;;;0.70;0.50;;;14.60;1.00;;;;;;5071327;28;20461;-76
2022/05/21 04:43:50;;;;;;;0.60;0.20;;;14.60;1.00;;;;;;5071614;28;20958;-77
2022/05/21 04:46:19;;;;;;;4.27;1.50;;;14.50;1.00;;;;;;5070906;28;20457;-77
2022/05/21 04:48:49;;;;;;;1.10;0.80;;;14.50;1.00;;;;;;5072136;27;20442;-77
2022/05/21 04:51:31;;;;;;;0.60;0.10;;;14.50;1.00;;;;;;5071121;27;20461;-76
2022/05/21 04:53:59;;;;;;;0.60;0.10;;;14.40;1.00;;;;;;5071035;28;20441;-77
2022/05/21 04:56:27;;;;;;;0.80;0.50;;;14.40;1.00;;;;;;5072511;27;20927;-76
2022/05/21 04:59:12;;;;;;;0.60;0.20;;;14.40;1.00;;;;;;5072572;27;20864;-76
2022/05/21 05:01:41;;;;;;;0.60;0.20;;;14.40;1.00;;;;;;5068958;28;20852;-77
2022/05/21 05:04:10;;;;;;;0.80;0.43;;;14.50;1.00;;;;;;5071900;28;20460;-77
2022/05/21 05:06:39;;;;;;;1.20;0.83;;;14.60;1.00;;;;;;5069924;28;20448;-77
2022/05/21 05:09:09;;;;;;;0.60;0.10;;;14.50;1.00;;;;;;5070068;27;20455;-77
2022/05/21 05:11:37;;;;;;;0.60;0.10;;;14.50;1.00;;;;;;5052304;27;20460;-77
2022/05/21 05:14:05;;;;;;;0.60;0.20;;;14.50;1.00;;;;;;5082756;27;20442;-77
2022/05/21 05:16:34;;;;;;;3.13;2.80;;;14.50;1.00;;;;;;5072968;27;20206;-76
2022/05/21 05:19:02;;;;;;;0.60;0.10;;;14.50;1.00;;;;;;5071346;28;20448;-76
2022/05/21 05:21:30;;;;;;;1.00;0.50;;;14.40;1.00;;;;;;5080150;27;20505;-76
2022/05/21 05:23:58;;;;;;;2.63;0.77;;;14.30;1.00;;;;;;5073064;27;20491;-77
2022/05/21 05:26:26;;;;;;;0.67;0.17;;;14.20;1.00;;;;;;5064871;27;20542;-77
2022/05/21 05:28:54;;;;;;;0.60;0.20;;;14.20;1.00;;;;;;5053283;28;20437;-77
2022/05/21 05:31:22;;;;;;;0.60;0.20;;;14.20;1.00;;;;;;5058888;28;20477;-77
2022/05/21 05:33:51;;;;;;;0.97;0.70;;;14.20;1.00;;;;;;5054263;28;20451;-77
2022/05/21 05:36:19;;;;;;;1.43;0.50;;;14.20;1.00;;;;;;5050555;28;20704;-77
2022/05/21 05:38:47;;;;;;;0.60;0.17;;;14.20;1.00;;;;;;5051170;28;20452;-76
2022/05/21 05:41:15;;;;;;;1.00;0.77;;;13.00;1.00;;;;;;5051064;28;20469;-77
2022/05/21 05:43:48;;;;;;;0.70;0.20;;;14.30;1.00;;;;;;5051697;28;20505;-76
2022/05/21 05:46:15;;;;;;;0.60;0.10;;;14.30;1.00;;;;;;5050637;28;20447;-76
2022/05/21 05:48:43;;;;;;;0.60;0.20;;;14.40;1.00;;;;;;5051763;28;20468;-77
2022/05/21 05:51:13;;;;;;;0.60;0.10;;;14.70;1.00;;;;;;5052288;28;20496;-77
2022/05/21 05:53:41;;;;;;;0.60;0.10;;;14.70;1.00;;;;;;5055259;28;20444;-76
2022/05/21 05:56:09;;;;;;;0.93;0.20;;;14.90;1.00;;;;;;5053507;28;20510;-77
2022/05/21 06:01:24;;;;;;;1.00;0.60;;;15.00;1.00;;;;;;5058477;28;20479;-76
2022/05/21 06:04:00;;;;;;;0.60;0.10;;;14.90;1.00;;;;;;5055761;28;20467;-77
2022/05/21 06:06:36;;;;;;;0.80;0.40;;;14.90;1.00;;;;;;5052429;28;20436;-76
2022/05/21 06:09:05;;;;;;;0.60;0.10;;;14.90;1.00;;;;;;5053300;28;20791;-77
2022/05/21 06:11:37;;;;;;;0.60;0.20;;;14.90;1.00;;;;;;5055677;28;20993;-77
2022/05/21 06:14:06;;;;;;;0.60;0.27;;;14.90;1.00;;;;;;5053078;28;20449;-71
2022/05/21 06:16:34;;;;;;;0.60;0.20;;;14.90;1.00;;;;;;5051112;28;20443;-74
2022/05/21 06:19:02;;;;;;;1.00;0.80;;;14.90;1.00;;;;;;5050471;28;20934;-72
2022/05/21 06:21:30;;;;;;;0.60;0.20;;;15.00;1.00;;;;;;5050709;28;20481;-74
2022/05/21 06:23:59;;;;;;;0.70;0.40;;;15.10;1.00;;;;;;5050137;28;20497;-72
2022/05/21 06:26:27;;;;;;;1.37;0.80;;;;;;;;;;5049557;28;20445;-75
2022/05/21 06:28:55;;;;;;;0.60;0.10;;;15.20;1.00;;;;;;5050399;28;20442;-74
2022/05/21 06:31:22;;;;;;;0.60;0.10;;;15.10;1.00;;;;;;5051587;28;21018;-76
2022/05/21 06:33:50;;;;;;;0.60;0.10;;;15.20;1.00;;;;;;5054631;28;20449;-74
2022/05/21 06:36:18;;;;;;;0.60;0.30;;;15.40;1.00;;;;;;5060145;28;20448;-72
2022/05/21 06:38:46;;;;;;;0.60;0.17;;;15.50;1.00;;;;;;5055535;28;20460;-72
2022/05/21 06:41:16;;;;;;;0.60;0.20;;;15.80;1.00;;;;;;5051003;28;20469;-72
2022/05/21 06:43:49;;;;;;;0.60;0.13;;;15.80;1.00;;;;;;5050411;28;20487;-73
2022/05/21 06:46:17;;;;;;;0.60;0.10;;;15.80;1.00;;;;;;5050202;28;20464;-73
2022/05/21 06:48:45;;;;;;;0.60;0.10;;;15.70;1.00;;;;;;5050389;28;20456;-74
2022/05/21 06:51:13;;;;;;;0.60;0.10;;;15.70;1.00;;;;;;5051834;28;20457;-73
2022/05/21 06:53:41;;;;;;;1.33;0.30;;;15.70;1.00;;;;;;5052487;28;20452;-75
2022/05/21 06:56:11;;;;;;;0.60;0.10;;;15.60;1.00;;;;;;5049432;28;20459;-77
2022/05/21 06:58:40;;;;;;;0.60;0.10;;;15.70;1.00;;;;;;5050507;28;20445;-73
2022/05/21 07:01:09;;;;;;;0.60;0.37;;;15.80;1.00;;;;;;5050764;28;20570;-73
2022/05/21 07:03:37;;;;;;;0.60;0.10;;;15.80;1.00;;;;;;5050576;28;20556;-73
2022/05/21 07:08:51;;;;;;;0.60;0.20;;;15.60;1.00;;;;;;5050614;28;20468;-73
2022/05/21 07:11:19;;;;;;;2.00;0.70;;;15.80;1.00;;;;;;5052221;28;20545;-73
2022/05/21 07:13:48;;;;;;;0.60;0.20;;;15.80;1.00;;;;;;5049879;28;20445;-72
2022/05/21 07:16:16;;;;;;;0.60;0.10;;;15.70;1.00;;;;;;5052392;28;20438;-74
2022/05/21 07:18:44;;;;;;;1.07;0.73;;;15.80;1.00;;;;;;5053395;28;20450;-74
2022/05/21 07:21:15;;;;;;;1.17;0.43;;;15.90;1.00;;;;;;5053701;28;20944;-74
2022/05/21 07:23:44;;;;;;;0.70;0.50;;;17.00;1.00;;;;;;5051236;28;20466;-73
2022/05/21 07:26:12;;;;;;;2.70;0.63;;;16.00;99.90;;;;;;5049510;28;20908;-74
2022/05/21 07:28:40;;;;;;;0.60;0.10;;;15.90;99.90;;;;;;5050899;28;20837;-73
2022/05/21 07:31:09;;;;;;;0.70;0.30;;;16.00;1.00;;;;;;5051143;28;20481;-74
2022/05/21 07:33:40;;;;;;;0.90;0.47;;;16.00;99.90;;;;;;5049417;28;20482;-72
2022/05/21 07:36:08;;;;;;;0.90;0.67;;;16.10;99.90;;;;;;5051338;27;20478;-71
2022/05/21 07:38:37;;;;;;;0.63;0.23;;;16.00;99.90;;;;;;5054794;28;20446;-75
2022/05/21 07:41:06;;;;;;;0.90;0.67;;;16.00;99.90;;;;;;5053558;27;20463;-76
2022/05/21 07:43:34;;;;;;;0.60;0.10;;;16.10;99.90;;;;;;5054776;28;20483;-73
2022/05/21 07:46:02;;;;;;;0.60;0.30;;;16.20;99.90;;;;;;5053622;27;20450;-74
2022/05/21 07:48:32;;;;;;;0.70;0.40;;;16.30;99.90;;;;;;5051821;28;20497;-74
2022/05/21 07:51:06;;;;;;;1.73;0.50;;;16.40;99.90;;;;;;5053495;28;20462;-72
2022/05/21 07:53:37;;;;;;;0.80;0.40;;;16.40;99.90;;;;;;5050658;28;20935;-72
2022/05/21 07:56:10;;;;;;;4.00;0.60;;;16.50;99.90;;;;;;5049599;27;20947;-80
2022/05/21 07:58:39;;;;;;;0.60;0.10;;;16.50;99.90;;;;;;5055206;27;20442;-75
2022/05/21 08:01:08;;;;;;;0.60;0.10;;;16.60;99.90;;;;;;5050428;27;20459;-73
2022/05/21 08:03:43;;;;;;;0.60;0.10;;;16.60;99.90;;;;;;5048997;28;20505;-75
2022/05/21 08:06:11;;;;;;;0.60;0.10;;;16.70;99.90;;;;;;5048516;28;20458;-74
2022/05/21 08:08:38;;;;;;;0.60;0.10;;;17.00;99.90;;;;;;5050535;28;20442;-72
2022/05/21 08:11:06;;;;;;;1.03;0.57;;;17.00;99.90;;;;;;5051181;27;20465;-73
2022/05/21 08:13:34;;;;;;;0.60;0.10;;;17.10;99.90;;;;;;5047380;28;20806;-75
2022/05/21 08:16:03;;;;;;;0.60;0.10;;;17.10;99.90;;;;;;5045177;28;20442;-74
2022/05/21 08:18:31;;;;;;;0.60;0.10;;;17.10;99.90;;;;;;5049652;28;20445;-73
2022/05/21 08:29:05;;;;;;;0.60;0.15;;;17.50;99.90;;;;;;5028482;28;20524;-71
2022/05/21 08:31:33;;;;;;;0.60;0.10;;;17.70;99.90;;;;;;5028771;28;20256;-72
2022/05/21 08:34:02;;;;;;;0.60;0.10;;;17.70;99.90;;;;;;5028954;28;20444;-72
2022/05/21 08:36:30;;;;;;;0.60;0.20;;;17.70;99.90;;;;;;5028014;28;20454;-70
2022/05/21 08:38:59;;;;;;;0.60;0.10;;;17.70;99.90;;;;;;5029359;28;20451;-71
2022/05/21 08:41:29;;;;;;;0.60;0.10;;;17.70;99.90;;;;;;5028248;28;20462;-72
2022/05/21 08:44:04;;;;;;;0.60;0.10;;;17.80;99.90;;;;;;5028338;28;20486;-71
2022/05/21 08:46:38;;;;;;;0.60;0.20;;;18.00;99.90;;;;;;5029319;28;20446;-72
2022/05/21 08:49:08;;;;;;;0.60;0.20;;;18.10;99.90;;;;;;5029106;28;20454;-72
2022/05/21 08:51:44;;;;;;;0.60;0.10;;;18.10;99.90;;;;;;5029476;28;20267;-71
2022/05/21 08:54:23;;;;;;;0.60;0.20;;;18.00;99.90;;;;;;5028855;28;20439;-71
2022/05/21 08:56:53;;;;;;;0.60;0.20;;;18.10;99.90;;;;;;5028423;28;20547;-72
2022/05/21 08:59:25;;;;;;;0.60;0.10;;;17.90;99.90;;;;;;5027597;28;20447;-72
2022/05/21 09:01:53;;;;;;;0.60;0.10;;;18.00;99.90;;;;;;5028328;28;20464;-72
2022/05/21 09:04:27;;;;;;;0.60;0.20;;;18.00;99.90;;;;;;5027635;28;20510;-72
2022/05/21 09:07:01;;;;;;;0.60;0.10;;;18.10;99.90;;;;;;5028131;28;20531;-74
2022/05/21 09:09:41;;;;;;;0.60;0.10;;;18.40;99.90;;;;;;5028019;28;20545;-73
2022/05/21 09:12:18;;;;;;;0.60;0.10;;;18.40;99.90;;;;;;5027825;28;20466;-70
2022/05/21 09:14:49;;;;;;;0.60;0.20;;;18.50;99.90;;;;;;5027109;28;20450;-71
2022/05/21 09:17:18;;;;;;;0.60;0.10;;;18.50;99.90;;;;;;5027225;28;20471;-71
2022/05/21 09:19:49;;;;;;;0.80;0.40;;;18.60;99.90;;;;;;5027607;28;20451;-71
2022/05/21 09:22:20;;;;;;;0.60;0.10;;;18.40;99.90;;;;;;5027545;28;21163;-71
2022/05/21 09:25:19;;;;;;;0.60;0.10;;;18.30;99.90;;;;;;5027294;28;20502;-71
2022/05/21 09:27:49;;;;;;;0.60;0.10;;;18.40;99.90;;;;;;5108268;28;20439;-71
2022/05/21 09:30:24;;;;;;;1.17;0.50;;;18.60;99.90;;;;;;5131200;28;20454;-71
2022/05/21 09:32:56;;;;;;;0.60;0.10;;;18.60;99.90;;;;;;5131597;28;20570;-71
2022/05/21 09:35:25;;;;;;;0.60;0.20;;;18.60;99.90;;;;;;5131049;28;20951;-71
2022/05/21 09:37:54;;;;;;;0.60;0.10;;;18.80;99.90;;;;;;5131345;28;20443;-71
2022/05/21 09:40:34;;;;;;;0.60;0.10;;;19.00;99.90;;;;;;5132079;28;20439;-70
2022/05/21 09:45:49;;;;;;;1.07;0.97;;;18.90;99.90;;;;;;5131255;28;20577;-71
2022/05/21 09:48:22;;;;;;;0.60;0.10;;;18.60;99.90;;;;;;5131541;28;20445;-72
2022/05/21 09:50:53;;;;;;;0.60;0.10;;;18.80;99.90;;;;;;5062849;28;20442;-72
2022/05/21 09:53:33;;;;;;;0.60;0.20;;;18.90;99.90;;;;;;5079466;28;20989;-72
2022/05/21 09:56:06;;;;;;;0.60;0.10;;;19.20;99.90;;;;;;5048000;28;20442;-71
2022/05/21 09:58:37;;;;;;;0.60;0.10;;;19.20;99.90;;;;;;5047345;28;20458;-72
2022/05/21 10:01:09;;;;;;;0.60;0.13;;;19.40;99.90;;;;;;5047116;28;20808;-72
2022/05/21 10:03:41;;;;;;;0.63;0.13;;;19.40;99.90;;;;;;5048270;28;20453;-72
2022/05/21 10:06:24;;;;;;;0.60;0.20;;;19.50;99.90;;;;;;5084927;27;20478;-73
2022/05/21 10:11:55;;;;;;;0.60;0.10;;;19.70;99.90;;;;;;5135641;27;20463;-71
2022/05/21 10:14:26;;;;;;;0.70;0.30;;;19.70;99.90;;;;;;5134916;27;20462;-72
2022/05/21 10:16:58;;;;;;;0.60;0.10;;;19.60;99.90;;;;;;5134772;27;20454;-71
2022/05/21 10:19:34;;;;;;;0.60;0.10;;;19.50;99.90;;;;;;5135120;27;20446;-71
2022/05/21 10:22:15;;;;;;;0.70;0.20;;;19.70;99.90;;;;;;5135453;27;20482;-72
2022/05/21 10:24:54;;;;;;;0.60;0.10;;;19.80;99.90;;;;;;5133514;27;20932;-72
2022/05/21 10:27:38;;;;;;;0.70;0.20;;;20.00;99.90;;;;;;5134776;27;20443;-72
2022/05/21 10:30:11;;;;;;;0.70;0.20;;;20.00;99.90;;;;;;5134981;27;20442;-72
2022/05/21 10:33:04;;;;;;;0.70;0.10;;;20.20;99.90;;;;;;5134996;27;20537;-73
2022/05/21 10:35:53;;;;;;;0.70;0.10;;;20.20;99.90;;;;;;5135445;27;20530;-74
2022/05/21 10:38:40;;;;;;;0.70;0.10;;;20.40;99.90;;;;;;5099642;27;20464;-73
2022/05/21 10:41:19;;;;;;;0.80;0.23;;;20.40;99.90;;;;;;5041287;27;20459;-73
2022/05/21 10:44:09;;;;;;;0.70;0.10;;;20.30;99.90;;;;;;5070112;27;20461;-74
2022/05/21 10:46:46;;;;;;;0.70;0.10;;;20.30;99.90;;;;;;5035865;28;20487;-73
2022/05/21 10:49:44;;;;;;;0.70;0.10;;;20.40;99.90;;;;;;5031556;27;20455;-74
2022/05/21 10:52:16;;;;;;;0.70;0.10;;;20.50;99.90;;;;;;5028602;27;20476;-74
2022/05/21 10:55:02;;;;;;;0.70;0.10;;;20.60;99.90;;;;;;5072759;27;20453;-74
2022/05/21 10:58:09;;;;;;;0.70;0.20;;;20.60;99.90;;;;;;5024190;27;20436;-74
2022/05/21 11:00:48;;;;;;;0.70;0.30;;;20.40;99.90;;;;;;5022556;28;20442;-73
2022/05/21 11:03:35;;;;;;;0.70;0.10;;;20.20;99.90;;;;;;5052723;28;20463;-73
2022/05/21 11:06:16;;;;;;;0.70;0.23;;;20.10;99.90;;;;;;5104288;27;20480;-74
2022/05/21 11:08:52;;;;;;;0.70;0.20;;;20.10;99.90;;;;;;5029659;28;20451;-74
2022/05/21 11:11:30;;;;;;;0.70;0.10;;;19.80;99.90;;;;;;5026343;27;20527;-75
2022/05/21 11:14:02;;;;;;;0.70;0.20;;;19.70;99.90;;;;;;5026225;28;20518;-76
2022/05/21 11:16:41;;;;;;;0.70;0.20;;;19.40;99.90;;;;;;5020884;28;20832;-72
2022/05/21 11:19:14;;;;;;;0.60;0.10;;;19.40;99.90;;;;;;5050902;27;20456;-73
2022/05/21 11:21:47;;;;;;;0.70;0.20;;;19.40;99.90;;;;;;5023121;28;20500;-72
2022/05/21 11:24:23;;;;;;;0.60;0.10;;;19.60;99.90;;;;;;5032491;27;20991;-74
2022/05/21 11:26:56;;;;;;;0.60;0.10;;;19.70;99.90;;;;;;5049651;27;20573;-73
2022/05/21 11:29:33;;;;;;;0.70;0.20;;;19.80;99.90;;;;;;5069249;27;20447;-73
2022/05/21 11:37:42;;;;;;;0.70;0.10;;;19.80;99.90;;;;;;5105254;27;20439;-74
2022/05/21 11:40:49;;;;;;;0.70;0.10;;;20.00;99.90;;;;;;5048808;27;20728;-75
2022/05/21 11:43:18;;;;;;;0.70;0.20;;;20.30;99.90;;;;;;5073609;27;20456;-76
2022/05/21 11:46:04;;;;;;;0.70;0.10;;;20.50;99.90;;;;;;5114049;27;20581;-74
2022/05/21 11:48:36;;;;;;;0.70;0.20;;;20.50;99.90;;;;;;5053264;27;20478;-75
2022/05/21 11:51:25;;;;;;;0.70;0.10;;;20.60;99.90;;;;;;5089135;27;20547;-74
2022/05/21 11:53:53;;;;;;;0.67;0.20;;;20.50;99.90;;;;;;5079656;27;20431;-75
2022/05/21 11:56:23;;;;;;;0.70;0.20;;;;;;;;;;5050087;27;20445;-75
2022/05/21 11:59:25;;;;;;;0.70;0.13;;;20.20;99.90;;;;;;5094513;27;20483;-74
2022/05/21 12:02:19;;;;;;;0.70;0.10;;;20.20;99.90;;;;;;5031281;28;20471;-73
2022/05/21 12:05:00;;;;;;;0.70;0.20;;;20.30;99.90;;;;;;5057335;27;20438;-74
2022/05/21 12:07:53;;;;;;;3.60;3.40;;;20.30;99.90;;;;;;5044473;27;20479;-73
2022/05/21 12:10:25;;;;;;;0.70;0.20;;;20.30;99.90;;;;;;5051215;27;20432;-72
2022/05/21 12:13:03;;;;;;;0.70;0.17;;;20.40;99.90;;;;;;5021934;27;20452;-72
2022/05/21 12:15:41;;;;;;;0.70;0.10;;;20.40;99.90;;;;;;5043466;27;20919;-72
2022/05/21 12:18:31;;;;;;;0.70;0.37;;;20.20;99.90;;;;;;5015172;27;20463;-72
2022/05/21 12:21:01;;;;;;;0.70;0.13;;;20.50;99.90;;;;;;5064990;27;20968;-72
2022/05/21 12:24:01;;;;;;;0.70;0.20;;;20.50;99.90;;;;;;5099728;27;20531;-73
2022/05/21 12:26:31;;;;;;;0.70;0.10;;;20.40;99.90;;;;;;5047446;28;20566;-74
2022/05/21 12:29:13;;;;;;;0.70;0.20;;;20.30;99.90;;;;;;5036395;28;20962;-73
2022/05/21 12:31:45;;;;;;;0.70;0.20;;;20.40;99.90;;;;;;5034706;28;20968;-72
2022/05/21 12:34:39;;;;;;;0.70;0.10;;;20.40;99.90;;;;;;5031401;28;20453;-72
2022/05/21 12:37:17;;;;;;;0.70;0.20;;;20.60;99.90;;;;;;5051325;28;20576;-73
2022/05/21 12:39:57;;;;;;;0.70;0.20;;;21.00;99.90;;;;;;5030083;28;20526;-73
2022/05/21 12:42:31;;;;;;;0.70;0.10;;;21.10;99.90;;;;;;5113169;27;20255;-71
2022/05/21 12:45:00;;;;;;;0.70;0.10;;;21.20;99.90;;;;;;5029532;28;20949;-72
2022/05/21 12:47:30;;;;;;;0.70;0.10;;;21.00;99.90;;;;;;5020751;28;20478;-73
2022/05/21 12:50:03;;;;;;;0.70;0.20;;;21.00;99.90;;;;;;5019467;28;20553;-72
2022/05/21 12:52:42;;;;;;;0.70;0.10;;;21.10;99.90;;;;;;5036079;28;20480;-78
2022/05/21 12:55:22;;;;;;;0.70;0.10;;;21.00;99.90;;;;;;5127337;27;20438;-78
2022/05/21 12:57:51;;;;;;;0.70;0.20;;;21.00;99.90;;;;;;5017024;28;20450;-78
2022/05/21 13:00:21;;;;;;;0.70;0.10;;;21.20;99.90;;;;;;5013572;28;20511;-80
2022/05/21 13:02:51;;;;;;;0.70;0.20;;;21.40;99.90;;;;;;5012287;28;20564;-78
2022/05/21 13:05:23;;;;;;;0.70;0.20;;;21.40;99.90;;;;;;5012801;28;20519;-79
2022/05/21 13:07:54;;;;;;;0.70;0.20;;;21.50;99.90;;;;;;5016078;28;20486;-78
2022/05/21 13:10:26;;;;;;;0.70;0.10;;;21.50;99.90;;;;;;5021029;28;20440;-78
2022/05/21 13:12:58;;;;;;;0.70;0.10;;;21.50;99.90;;;;;;5011708;28;20536;-78
2022/05/21 13:15:31;;;;;;;0.70;0.17;;;21.40;99.90;;;;;;5013760;28;20452;-78
2022/05/21 13:18:20;;;;;;;0.70;0.20;;;;;;;;;;5017549;28;20481;-78
2022/05/21 13:21:02;;;;;;;0.70;0.10;;;20.70;99.90;;;;;;5025372;28;20433;-78
2022/05/21 13:23:59;;;;;;;0.70;0.20;;;20.80;99.90;;;;;;5034712;28;20489;-80
2022/05/21 13:26:29;;;;;;;0.70;0.10;;;20.80;99.90;;;;;;5045689;28;20539;-78
2022/05/21 13:29:17;;;;;;;0.70;0.20;;;20.90;99.90;;;;;;5142191;28;20494;-78
2022/05/21 13:31:45;;;;;;;0.70;0.10;;;20.70;99.90;;;;;;5146385;28;20461;-78
2022/05/21 13:34:16;;;;;;;0.70;0.20;;;21.30;99.90;;;;;;5145095;28;20526;-78
2022/05/21 13:36:50;;;;;;;0.70;0.10;;;21.40;99.90;;;;;;5138505;27;20442;-78
2022/05/21 13:39:25;;;;;;;0.70;0.17;;;21.40;99.90;;;;;;5139713;27;20534;-77
2022/05/21 13:41:53;;;;;;;0.70;0.20;;;21.30;99.90;;;;;;5140284;27;20473;-78
2022/05/21 13:44:25;;;;;;;0.70;0.20;;;21.30;99.90;;;;;;5141346;27;20566;-78
2022/05/21 13:46:57;;;;;;;0.70;0.10;;;21.10;99.90;;;;;;5142983;27;20483;-78
2022/05/21 13:49:30;;;;;;;0.90;0.50;;;21.10;99.90;;;;;;5141370;27;20529;-79
2022/05/21 13:51:58;;;;;;;0.70;0.10;;;20.90;99.90;;;;;;5141774;27;21027;-78
2022/05/21 13:54:30;;;;;;;0.70;0.20;;;20.90;99.90;;;;;;5141633;27;20533;-79